createdAt,value
2022-12-15T00:00:40.946Z,1.90
2022-12-15T00:03:27.251Z,3.10
2022-12-15T00:06:13.550Z,3.55
2022-12-15T00:08:59.903Z,2.88
2022-12-15T00:11:45.900Z,2.35
2022-12-15T00:14:32.063Z,3.55
2022-12-15T00:17:18.544Z,2.20
2022-12-15T00:22:50.947Z,2.25
2022-12-15T00:25:37.054Z,3.97
2022-12-15T00:28:23.240Z,1.67
2022-12-15T00:31:09.386Z,2.83
2022-12-15T00:33:55.525Z,3.10
2022-12-15T00:36:41.779Z,2.92
2022-12-15T00:39:09.344Z,2.08
2022-12-15T00:41:37.070Z,2.85
2022-12-15T00:44:07.379Z,2.05
2022-12-15T00:47:00.539Z,2.70
2022-12-15T00:49:48.742Z,2.20
2022-12-15T00:52:36.970Z,2.50
2022-12-15T00:55:24.123Z,2.42
2022-12-15T00:58:12.673Z,1.67
2022-12-15T01:00:58.749Z,2.25
2022-12-15T01:03:45.033Z,2.53
2022-12-15T01:06:34.430Z,2.15
2022-12-15T01:09:22.066Z,2.35
2022-12-15T01:12:08.131Z,2.20
2022-12-15T01:14:54.304Z,2.17
2022-12-15T01:17:40.997Z,2.45
2022-12-15T01:20:18.366Z,1.92
2022-12-15T01:22:46.857Z,2.63
2022-12-15T01:25:16.750Z,2.70
2022-12-15T01:27:45.302Z,2.50
2022-12-15T01:30:15.849Z,2.97
2022-12-15T01:32:46.194Z,2.50
2022-12-15T01:35:14.506Z,2.70
2022-12-15T01:37:42.177Z,2.45
2022-12-15T01:40:32.737Z,2.25
2022-12-15T01:43:00.293Z,2.05
2022-12-15T01:45:30.535Z,2.90
2022-12-15T01:48:25.169Z,3.13
2022-12-15T01:51:06.023Z,2.58
2022-12-15T01:53:38.070Z,3.03
2022-12-15T01:56:08.383Z,2.20
2022-12-15T01:58:37.855Z,2.53
2022-12-15T02:01:06.176Z,2.70
2022-12-15T02:03:34.620Z,3.47
2022-12-15T02:06:10.722Z,3.17
2022-12-15T02:08:39.021Z,2.30
2022-12-15T02:11:28.315Z,1.83
2022-12-15T02:14:11.145Z,3.15
2022-12-15T02:17:06.726Z,1.85
2022-12-15T02:19:49.417Z,2.42
2022-12-15T02:22:35.257Z,2.80
2022-12-15T02:25:21.129Z,2.45
2022-12-15T02:28:13.444Z,1.50
2022-12-15T02:31:20.274Z,1.85
2022-12-15T02:34:04.167Z,2.28
2022-12-15T02:36:42.847Z,2.38
2022-12-15T02:39:12.657Z,2.42
2022-12-15T02:41:43.457Z,2.10
2022-12-15T02:44:29.348Z,2.00
2022-12-15T02:47:02.825Z,2.17
2022-12-15T02:49:33.327Z,1.90
2022-12-15T02:52:49.416Z,2.55
2022-12-15T02:55:33.938Z,2.17
2022-12-15T02:58:39.812Z,2.50
2022-12-15T03:01:24.955Z,1.90
2022-12-15T03:03:53.851Z,2.45
2022-12-15T03:06:21.573Z,2.60
2022-12-15T03:08:49.086Z,3.00
2022-12-15T03:11:16.646Z,2.80
2022-12-15T03:13:44.279Z,3.17
2022-12-15T03:16:12.408Z,3.05
2022-12-15T03:18:40.254Z,2.35
2022-12-15T03:21:08.483Z,2.97
2022-12-15T03:23:36.017Z,1.88
2022-12-15T03:26:03.742Z,2.28
2022-12-15T03:28:31.439Z,1.65
2022-12-15T03:30:59.159Z,2.13
2022-12-15T03:33:26.726Z,2.15
2022-12-15T03:35:54.488Z,2.13
2022-12-15T03:38:22.064Z,2.40
2022-12-15T03:40:49.768Z,3.65
2022-12-15T03:43:17.413Z,3.63
2022-12-15T03:45:45.065Z,3.10
2022-12-15T03:48:12.738Z,3.10
2022-12-15T03:50:40.933Z,2.63
2022-12-15T03:53:08.484Z,2.80
2022-12-15T03:55:36.385Z,2.25
2022-12-15T03:58:03.990Z,1.77
2022-12-15T04:00:31.595Z,3.70
2022-12-15T04:02:59.363Z,1.75
2022-12-15T04:05:30.132Z,2.45
2022-12-15T04:07:59.152Z,2.42
2022-12-15T04:10:33.947Z,2.78
2022-12-15T04:13:11.133Z,2.35
2022-12-15T04:15:40.331Z,2.70
2022-12-15T04:18:10.395Z,1.80
2022-12-15T04:20:40.176Z,3.17
2022-12-15T04:23:08.156Z,2.63
2022-12-15T04:25:55.255Z,3.70
2022-12-15T04:28:41.489Z,2.15
2022-12-15T04:31:31.464Z,1.48
2022-12-15T04:34:21.737Z,2.15
2022-12-15T04:37:10.468Z,2.40
2022-12-15T04:39:59.340Z,1.35
2022-12-15T04:42:46.149Z,2.20
2022-12-15T04:45:33.670Z,2.60
2022-12-15T04:48:19.816Z,1.35
2022-12-15T04:51:06.004Z,2.47
2022-12-15T04:53:52.386Z,1.80
2022-12-15T04:59:26.885Z,2.17
2022-12-15T05:02:13.575Z,2.25
2022-12-15T05:04:59.856Z,3.63
2022-12-15T05:07:46.448Z,3.05
2022-12-15T05:10:32.988Z,2.53
2022-12-15T05:13:23.962Z,3.38
2022-12-15T05:16:10.138Z,2.47
2022-12-15T05:18:56.345Z,2.47
2022-12-15T05:21:42.659Z,2.53
2022-12-15T05:24:32.131Z,3.60
2022-12-15T05:27:18.400Z,2.72
2022-12-15T05:30:04.954Z,3.15
2022-12-15T05:32:33.355Z,2.45
2022-12-15T05:35:25.995Z,4.25
2022-12-15T05:37:53.710Z,2.47
2022-12-15T05:40:21.202Z,3.15
2022-12-15T05:42:50.423Z,3.10
2022-12-15T05:45:18.096Z,2.28
2022-12-15T05:47:52.267Z,2.50
2022-12-15T05:50:21.046Z,7.38
2022-12-15T05:52:59.723Z,2.63
2022-12-15T05:55:35.053Z,2.50
2022-12-15T05:58:25.600Z,4.03
2022-12-15T06:00:53.431Z,3.85
2022-12-15T06:03:21.135Z,3.17
2022-12-15T06:05:54.646Z,4.05
2022-12-15T06:08:24.089Z,2.85
2022-12-15T06:10:54.797Z,3.78
2022-12-15T06:13:24.278Z,3.45
2022-12-15T06:16:11.012Z,2.60
2022-12-15T06:18:44.333Z,2.92
2022-12-15T06:21:26.596Z,2.50
2022-12-15T06:23:56.258Z,2.05
2022-12-15T06:26:39.404Z,3.38
2022-12-15T06:29:10.209Z,2.95
2022-12-15T06:31:39.016Z,2.08
2022-12-15T06:34:11.352Z,2.83
2022-12-15T06:36:44.001Z,3.22
2022-12-15T06:39:16.769Z,2.10
2022-12-15T06:41:45.412Z,3.88
2022-12-15T06:44:14.731Z,4.38
2022-12-15T06:46:43.055Z,2.40
2022-12-15T06:49:10.718Z,4.40
2022-12-15T06:51:38.437Z,5.55
2022-12-15T06:54:11.316Z,3.00
2022-12-15T06:56:42.486Z,3.00
2022-12-15T06:59:11.633Z,2.70
2022-12-15T07:01:39.563Z,2.10
2022-12-15T07:04:07.549Z,2.78
2022-12-15T07:06:37.362Z,6.95
2022-12-15T07:09:08.618Z,3.85
2022-12-15T07:11:39.789Z,2.60
2022-12-15T07:14:07.617Z,2.28
2022-12-15T07:16:35.323Z,2.55
2022-12-15T07:19:03.098Z,2.20
2022-12-15T07:21:30.915Z,2.63
2022-12-15T07:23:59.578Z,2.03
2022-12-15T07:26:28.312Z,4.43
2022-12-15T07:28:56.128Z,3.47
2022-12-15T07:31:24.493Z,2.65
2022-12-15T07:33:53.869Z,2.97
2022-12-15T07:36:21.670Z,2.15
2022-12-15T07:38:52.047Z,2.90
2022-12-15T07:41:22.714Z,2.60
2022-12-15T07:43:51.150Z,2.40
2022-12-15T07:46:19.182Z,2.67
2022-12-15T07:48:50.359Z,2.30
2022-12-15T07:51:21.659Z,2.72
2022-12-15T07:53:51.217Z,2.50
2022-12-15T07:56:19.844Z,1.55
2022-12-15T07:58:47.932Z,2.97
2022-12-15T08:01:16.052Z,1.58
2022-12-15T08:03:45.258Z,2.28
2022-12-15T08:06:16.398Z,2.55
2022-12-15T08:08:50.648Z,3.20
2022-12-15T08:11:24.990Z,3.78
2022-12-15T08:14:02.688Z,2.35
2022-12-15T08:16:30.714Z,2.40
2022-12-15T08:18:58.485Z,3.13
2022-12-15T08:21:26.056Z,2.78
2022-12-15T08:23:56.818Z,1.90
2022-12-15T08:26:30.077Z,2.38
2022-12-15T08:29:24.524Z,3.35
2022-12-15T08:31:49.016Z,3.35
2022-12-15T08:34:24.703Z,1.80
2022-12-15T08:36:52.382Z,2.75
2022-12-15T08:39:20.647Z,3.05
2022-12-15T08:41:48.344Z,2.95
2022-12-15T08:44:17.410Z,3.05
2022-12-15T08:46:45.275Z,3.22
2022-12-15T08:49:17.924Z,3.58
2022-12-15T08:51:52.493Z,3.42
2022-12-15T08:54:21.268Z,2.50
2022-12-15T08:56:52.483Z,2.92
2022-12-15T08:59:20.232Z,3.08
2022-12-15T09:01:48.140Z,2.65
2022-12-15T09:04:16.345Z,3.83
2022-12-15T09:06:44.080Z,2.55
2022-12-15T09:09:16.148Z,3.10
2022-12-15T09:11:43.758Z,2.53
2022-12-15T09:14:11.550Z,3.83
2022-12-15T09:16:39.140Z,2.88
2022-12-15T09:19:08.473Z,2.40
2022-12-15T09:21:40.249Z,2.17
2022-12-15T09:24:07.878Z,2.35
2022-12-15T09:26:35.574Z,3.75
2022-12-15T09:29:03.533Z,3.22
2022-12-15T09:31:33.692Z,2.63
2022-12-15T09:34:02.161Z,2.13
2022-12-15T09:36:32.867Z,2.72
2022-12-15T09:39:02.055Z,4.03
2022-12-15T09:41:36.428Z,3.05
2022-12-15T09:44:18.927Z,1.90
2022-12-15T09:46:50.280Z,3.22
2022-12-15T09:49:36.276Z,3.63
2022-12-15T09:52:11.599Z,3.50
2022-12-15T09:54:43.102Z,2.40
2022-12-15T09:57:16.876Z,2.28
2022-12-15T10:00:27.078Z,2.42
2022-12-15T10:03:33.143Z,1.88
2022-12-15T10:06:23.946Z,1.40
2022-12-15T10:08:55.998Z,2.50
2022-12-15T10:12:01.949Z,2.30
2022-12-15T10:14:46.221Z,2.53
2022-12-15T10:17:35.129Z,2.55
2022-12-15T10:20:12.682Z,2.63
2022-12-15T10:22:40.571Z,2.75
2022-12-15T10:25:16.265Z,2.45
2022-12-15T10:28:05.693Z,2.15
2022-12-15T10:30:34.347Z,2.22
2022-12-15T10:33:11.325Z,1.63
2022-12-15T10:35:40.643Z,1.88
2022-12-15T10:38:29.010Z,2.60
2022-12-15T10:41:01.047Z,2.85
2022-12-15T10:43:38.838Z,3.17
2022-12-15T10:46:18.996Z,3.67
2022-12-15T10:48:49.989Z,2.30
2022-12-15T10:51:27.191Z,2.97
2022-12-15T10:54:09.948Z,2.90
2022-12-15T10:56:53.595Z,2.63
2022-12-15T10:59:31.877Z,2.03
2022-12-15T11:05:15.859Z,2.20
2022-12-15T11:07:55.158Z,1.80
2022-12-15T11:10:52.796Z,2.03
2022-12-15T11:13:22.674Z,1.75
2022-12-15T11:15:55.168Z,1.85
2022-12-15T11:18:44.570Z,1.50
2022-12-15T11:21:21.791Z,1.50
2022-12-15T11:24:16.741Z,1.35
2022-12-15T11:27:08.534Z,3.22
2022-12-15T11:30:10.615Z,3.80
2022-12-15T11:32:46.930Z,2.17
2022-12-15T11:35:33.272Z,2.50
2022-12-15T11:38:16.506Z,2.00
2022-12-15T11:40:44.549Z,2.17
2022-12-15T11:43:18.794Z,2.72
2022-12-15T11:46:16.654Z,2.28
2022-12-15T11:49:18.482Z,1.90
2022-12-15T11:51:52.593Z,2.10
2022-12-15T11:54:29.792Z,2.08
2022-12-15T11:57:06.000Z,2.25
2022-12-15T11:59:53.402Z,2.05
2022-12-15T12:03:05.198Z,2.58
2022-12-15T12:05:50.875Z,2.50
2022-12-15T12:08:45.989Z,3.80
2022-12-15T12:11:42.907Z,1.77
2022-12-15T12:16:55.962Z,3.50
2022-12-15T12:19:24.980Z,3.72
2022-12-15T12:22:00.551Z,2.78
2022-12-15T12:24:38.601Z,2.15
2022-12-15T12:27:20.762Z,2.20
2022-12-15T12:30:02.477Z,1.60
2022-12-15T12:32:50.859Z,2.13
2022-12-15T12:35:34.114Z,1.95
2022-12-15T12:38:05.883Z,2.53
2022-12-15T12:40:59.091Z,2.42
2022-12-15T12:43:36.741Z,3.97
2022-12-15T12:46:10.178Z,2.10
2022-12-15T12:49:00.366Z,2.55
2022-12-15T12:51:39.813Z,2.40
2022-12-15T12:54:35.246Z,4.30
2022-12-15T12:57:11.899Z,3.10
2022-12-15T12:59:49.152Z,5.13
2022-12-15T13:02:25.950Z,5.05
2022-12-15T13:05:21.986Z,3.90
2022-12-15T13:08:10.913Z,3.47
2022-12-15T13:10:39.939Z,3.08
2022-12-15T13:13:37.726Z,5.10
2022-12-15T13:16:24.170Z,6.45
2022-12-15T13:19:09.815Z,6.10
2022-12-15T13:21:43.567Z,5.03
2022-12-15T13:24:26.473Z,4.50
2022-12-15T13:27:09.572Z,4.55
2022-12-15T13:30:01.897Z,3.72
2022-12-15T13:32:37.493Z,33.65
2022-12-15T13:35:15.135Z,15.50
2022-12-15T13:37:42.613Z,8.50
2022-12-15T13:40:35.227Z,6.65
2022-12-15T13:43:05.654Z,4.75
2022-12-15T13:45:50.307Z,4.80
2022-12-15T13:48:30.302Z,3.45
2022-12-15T13:50:58.243Z,6.95
2022-12-15T13:53:29.023Z,4.78
2022-12-15T13:56:18.769Z,11.25
2022-12-15T13:58:54.325Z,5.55
2022-12-15T14:01:31.787Z,4.32
2022-12-15T14:04:22.973Z,3.20
2022-12-15T14:07:02.319Z,3.30
2022-12-15T14:09:36.924Z,4.55
2022-12-15T14:12:08.053Z,4.22
2022-12-15T14:14:37.980Z,2.97
2022-12-15T14:17:09.777Z,7.20
2022-12-15T14:19:40.412Z,5.38
2022-12-15T14:22:29.396Z,5.82
2022-12-15T14:25:18.350Z,5.70
2022-12-15T14:27:50.821Z,5.28
2022-12-15T14:30:22.793Z,5.82
2022-12-15T14:33:04.381Z,5.40
2022-12-15T14:35:38.969Z,6.97
2022-12-15T14:38:11.380Z,5.32
2022-12-15T14:40:40.391Z,6.00
2022-12-15T14:43:18.850Z,5.85
2022-12-15T14:45:49.231Z,10.68
2022-12-15T14:48:45.078Z,7.72
2022-12-15T14:51:14.552Z,9.45
2022-12-15T14:53:48.013Z,9.75
2022-12-15T14:56:29.468Z,9.00
2022-12-15T14:59:17.321Z,6.68
2022-12-15T15:02:00.802Z,6.28
2022-12-15T15:03:11.194Z,2.22
2022-12-15T15:04:33.705Z,5.57
2022-12-15T15:07:22.469Z,5.25
2022-12-15T15:09:51.634Z,14.50
2022-12-15T15:12:21.782Z,11.82
2022-12-15T15:14:58.152Z,10.15
2022-12-15T15:20:04.009Z,6.40
2022-12-15T15:22:45.402Z,5.78
2022-12-15T15:25:43.659Z,3.92
2022-12-15T15:28:23.091Z,4.13
2022-12-15T15:30:52.474Z,3.42
2022-12-15T15:33:25.296Z,7.43
2022-12-15T15:35:58.582Z,4.28
2022-12-15T15:38:34.809Z,3.00
2022-12-15T15:41:23.766Z,3.28
2022-12-15T15:43:51.957Z,3.47
2022-12-15T15:46:25.773Z,3.15
2022-12-15T15:49:00.893Z,6.50
2022-12-15T15:51:30.402Z,7.33
2022-12-15T15:54:04.696Z,8.07
2022-12-15T15:56:32.566Z,7.93
2022-12-15T15:59:09.893Z,10.45
2022-12-15T16:01:37.607Z,10.73
2022-12-15T16:04:06.703Z,10.43
2022-12-15T16:06:34.860Z,10.77
2022-12-15T16:09:02.557Z,12.27
2022-12-15T16:11:30.991Z,11.63
2022-12-15T16:13:58.586Z,11.45
2022-12-15T16:16:32.150Z,12.52
2022-12-15T16:18:59.951Z,12.82
2022-12-15T16:21:28.276Z,10.40
2022-12-15T16:23:57.887Z,15.07
2022-12-15T16:26:30.542Z,13.55
2022-12-15T16:28:58.178Z,17.20
2022-12-15T16:31:41.204Z,18.33
2022-12-15T16:34:09.601Z,20.83
2022-12-15T16:36:37.274Z,13.57
2022-12-15T16:39:06.250Z,13.60
2022-12-15T16:41:34.073Z,12.23
2022-12-15T16:44:01.570Z,9.95
2022-12-15T16:46:29.178Z,6.85
2022-12-15T16:48:56.867Z,5.82
2022-12-15T16:51:37.085Z,5.57
2022-12-15T16:54:04.949Z,7.35
2022-12-15T16:56:33.170Z,8.25
2022-12-15T16:59:31.288Z,5.18
2022-12-15T17:01:48.979Z,5.15
2022-12-15T17:04:16.797Z,5.60
2022-12-15T17:06:44.685Z,5.50
2022-12-15T17:09:22.003Z,6.55
2022-12-15T17:11:50.674Z,6.15
2022-12-15T17:14:18.214Z,5.75
2022-12-15T17:16:45.960Z,6.85
2022-12-15T17:19:17.660Z,6.88
2022-12-15T17:21:52.650Z,6.30
2022-12-15T17:24:22.355Z,7.70
2022-12-15T17:26:50.481Z,10.98
2022-12-15T17:29:25.381Z,11.38
2022-12-15T17:31:53.046Z,12.52
2022-12-15T17:34:30.684Z,9.18
2022-12-15T17:37:04.334Z,9.43
2022-12-15T17:39:34.343Z,12.35
2022-12-15T17:42:15.348Z,11.07
2022-12-15T17:44:52.472Z,15.55
2022-12-15T17:47:20.078Z,12.10
2022-12-15T17:49:47.808Z,12.88
2022-12-15T17:52:29.939Z,12.73
2022-12-15T17:54:57.898Z,11.38
2022-12-15T17:57:25.738Z,11.43
2022-12-15T17:59:53.574Z,12.73
2022-12-15T18:02:21.198Z,12.60
2022-12-15T18:04:48.828Z,11.98
2022-12-15T18:07:20.881Z,11.48
2022-12-15T18:09:50.123Z,13.80
2022-12-15T18:12:24.244Z,12.88
2022-12-15T18:14:56.154Z,13.88
2022-12-15T18:17:25.503Z,13.75
2022-12-15T18:20:04.868Z,12.00
2022-12-15T18:22:32.462Z,12.43
2022-12-15T18:25:00.014Z,11.18
2022-12-15T18:27:29.223Z,12.73
2022-12-15T18:29:57.214Z,11.63
2022-12-15T18:32:26.934Z,11.85
2022-12-15T18:34:58.466Z,11.10
2022-12-15T18:37:26.263Z,12.45
2022-12-15T18:40:04.492Z,10.35
2022-12-15T18:42:33.702Z,8.80
2022-12-15T18:45:13.146Z,7.32
2022-12-15T18:47:41.896Z,8.50
2022-12-15T18:50:19.421Z,10.15
2022-12-15T18:53:02.862Z,10.23
2022-12-15T18:55:33.346Z,12.27
2022-12-15T18:58:34.087Z,11.48
2022-12-15T19:01:07.639Z,10.43
2022-12-15T19:03:37.750Z,9.43
2022-12-15T19:06:26.200Z,10.30
2022-12-15T19:08:54.335Z,11.02
2022-12-15T19:11:32.752Z,16.95
2022-12-15T19:14:03.079Z,13.73
2022-12-15T19:16:51.185Z,11.00
2022-12-15T19:20:10.221Z,9.55
2022-12-15T19:28:15.649Z,8.00
2022-12-15T19:31:03.755Z,8.20
2022-12-15T19:33:31.771Z,10.23
2022-12-15T19:36:00.044Z,9.00
2022-12-15T19:38:31.104Z,7.47
2022-12-15T19:41:01.386Z,7.13
2022-12-15T19:43:33.369Z,9.05
2022-12-15T19:46:05.440Z,13.65
2022-12-15T19:48:33.462Z,12.13
2022-12-15T19:51:01.535Z,10.98
2022-12-15T19:53:31.186Z,11.40
2022-12-15T19:56:01.821Z,12.52
2022-12-15T19:58:34.582Z,13.68
2022-12-15T20:01:12.647Z,14.77
2022-12-15T20:03:45.156Z,16.02
2022-12-15T20:06:19.586Z,15.52
2022-12-15T20:08:50.669Z,15.35
2022-12-15T20:11:24.321Z,11.00
2022-12-15T20:13:53.182Z,8.85
2022-12-15T20:16:21.846Z,6.57
2022-12-15T20:18:56.239Z,6.53
2022-12-15T20:21:28.676Z,4.25
2022-12-15T20:24:03.687Z,5.45
2022-12-15T20:26:32.087Z,5.20
2022-12-15T20:28:59.721Z,5.00
2022-12-15T20:31:27.561Z,6.05
2022-12-15T20:33:57.523Z,5.40
2022-12-15T20:36:31.152Z,4.63
2022-12-15T20:38:59.095Z,4.15
2022-12-15T20:41:29.146Z,3.55
2022-12-15T20:43:58.033Z,4.63
2022-12-15T20:46:32.046Z,4.20
2022-12-15T20:49:00.021Z,4.88
2022-12-15T20:51:33.073Z,5.32
2022-12-15T20:54:02.919Z,3.15
2022-12-15T20:56:30.816Z,3.83
2022-12-15T20:58:59.224Z,3.58
2022-12-15T21:01:31.993Z,4.00
2022-12-15T21:04:02.364Z,2.85
2022-12-15T21:06:30.738Z,4.47
2022-12-15T21:09:03.204Z,9.25
2022-12-15T21:11:32.898Z,8.88
2022-12-15T21:14:04.326Z,4.47
2022-12-15T21:16:34.231Z,3.20
2022-12-15T21:19:20.803Z,4.10
2022-12-15T21:21:55.134Z,5.68
2022-12-15T21:24:25.694Z,3.90
2022-12-15T21:27:05.498Z,3.65
2022-12-15T21:29:34.480Z,3.67
2022-12-15T21:32:02.236Z,4.22
2022-12-15T21:34:29.960Z,4.03
2022-12-15T21:36:58.041Z,3.65
2022-12-15T21:39:34.176Z,4.22
2022-12-15T21:44:32.242Z,3.50
2022-12-15T21:47:00.183Z,3.90
2022-12-15T21:49:27.853Z,3.13
2022-12-15T21:52:00.836Z,3.22
2022-12-15T21:54:34.820Z,4.28
2022-12-15T21:57:02.872Z,4.22
2022-12-15T21:59:32.654Z,3.53
2022-12-15T22:02:00.743Z,2.85
2022-12-15T22:04:34.113Z,8.13
2022-12-15T22:07:02.270Z,6.75
2022-12-15T22:09:29.991Z,4.88
2022-12-15T22:11:58.089Z,3.00
2022-12-15T22:14:32.005Z,3.92
2022-12-15T22:17:01.574Z,3.05
2022-12-15T22:19:29.298Z,2.75
2022-12-15T22:21:57.045Z,2.80
2022-12-15T22:24:24.735Z,3.15
2022-12-15T22:26:52.446Z,3.22
2022-12-15T22:29:22.349Z,3.33
2022-12-15T22:31:50.616Z,2.60
2022-12-15T22:34:23.045Z,3.35
2022-12-15T22:36:51.984Z,2.90
2022-12-15T22:39:20.065Z,3.13
2022-12-15T22:41:53.657Z,3.20
2022-12-15T22:44:23.889Z,2.38
2022-12-15T22:46:54.136Z,2.95
2022-12-15T22:49:27.506Z,2.83
2022-12-15T22:51:56.435Z,2.90
2022-12-15T22:54:26.981Z,2.72
2022-12-15T22:57:04.037Z,2.35
2022-12-15T22:59:43.242Z,2.08
2022-12-15T23:02:11.515Z,2.78
2022-12-15T23:04:42.384Z,2.28
2022-12-15T23:07:12.800Z,2.78
2022-12-15T23:09:40.366Z,2.70
2022-12-15T23:12:08.161Z,2.65
2022-12-15T23:15:04.737Z,2.55
2022-12-15T23:17:32.456Z,2.85
2022-12-15T23:20:00.076Z,2.95
2022-12-15T23:22:27.713Z,2.50
2022-12-15T23:24:55.756Z,2.65
2022-12-15T23:27:23.415Z,2.10
2022-12-15T23:29:51.056Z,2.10
2022-12-15T23:32:19.866Z,2.20
2022-12-15T23:34:47.481Z,1.85
2022-12-15T23:37:15.128Z,2.33
2022-12-15T23:39:42.829Z,1.88
2022-12-15T23:42:11.711Z,1.90
2022-12-15T23:44:39.900Z,2.05
2022-12-15T23:47:08.102Z,2.20
2022-12-15T23:49:35.917Z,1.65
2022-12-15T23:52:03.778Z,1.48
2022-12-15T23:54:31.498Z,1.80
2022-12-15T23:56:59.158Z,1.67
2022-12-15T23:59:26.723Z,1.70
